createdAt,value
2017-12-04T00:00:21.852Z,1019.92
2017-12-04T00:01:21.841Z,1019.93
2017-12-04T00:02:21.836Z,1019.95
2017-12-04T00:03:21.815Z,1019.95
2017-12-04T00:04:21.804Z,1019.96
2017-12-04T00:05:21.793Z,1020.01
2017-12-04T00:06:21.785Z,1019.99
2017-12-04T00:07:21.782Z,1019.98
2017-12-04T00:08:21.764Z,1019.97
2017-12-04T00:09:21.763Z,1019.99
2017-12-04T00:10:22.667Z,1019.97
2017-12-04T00:11:21.765Z,1019.97
2017-12-04T00:12:21.731Z,1019.95
2017-12-04T00:13:21.717Z,1020.01
2017-12-04T00:14:21.709Z,1020.02
2017-12-04T00:15:21.697Z,1020.05
2017-12-04T00:16:21.685Z,1020.00
2017-12-04T00:17:21.675Z,1020.01
2017-12-04T00:18:21.664Z,1019.98
2017-12-04T00:19:21.652Z,1019.97
2017-12-04T00:20:21.657Z,1020.01
2017-12-04T00:21:21.633Z,1019.98
2017-12-04T00:22:21.624Z,1020.01
2017-12-04T00:23:21.618Z,1020.04
2017-12-04T00:24:21.614Z,1020.05
2017-12-04T00:25:21.604Z,1020.10
2017-12-04T00:26:21.581Z,1020.07
2017-12-04T00:27:21.578Z,1020.08
2017-12-04T00:28:21.557Z,1020.12
2017-12-04T00:29:21.559Z,1020.08
2017-12-04T00:30:21.542Z,1020.13
2017-12-04T00:31:21.534Z,1020.13
2017-12-04T00:32:21.545Z,1020.14
2017-12-04T00:33:21.507Z,1020.12
2017-12-04T00:34:21.494Z,1020.15
2017-12-04T00:35:21.490Z,1020.09
2017-12-04T00:36:21.488Z,1020.09
2017-12-04T00:37:21.469Z,1020.09
2017-12-04T00:38:21.464Z,1020.09
2017-12-04T00:39:21.447Z,1020.03
2017-12-04T00:40:21.444Z,1020.04
2017-12-04T00:41:21.432Z,1020.11
2017-12-04T00:42:21.424Z,1020.13
2017-12-04T00:43:21.404Z,1020.13
2017-12-04T00:44:21.399Z,1020.17
2017-12-04T00:45:21.385Z,1020.21
2017-12-04T00:46:21.382Z,1020.19
2017-12-04T00:47:21.367Z,1020.20
2017-12-04T00:48:21.370Z,1020.18
2017-12-04T00:49:21.434Z,1020.18
2017-12-04T00:50:21.384Z,1020.17
2017-12-04T00:51:21.320Z,1020.19
2017-12-04T00:52:21.318Z,1020.17
2017-12-04T00:53:21.307Z,1020.16
2017-12-04T00:54:21.297Z,1020.20
2017-12-04T00:55:21.287Z,1020.17
2017-12-04T00:56:21.274Z,1020.18
2017-12-04T00:57:21.272Z,1020.17
2017-12-04T00:58:21.263Z,1020.19
2017-12-04T00:59:21.250Z,1020.16
2017-12-04T01:00:21.247Z,1020.22
2017-12-04T01:01:21.225Z,1020.26
2017-12-04T01:02:21.216Z,1020.25
2017-12-04T01:03:21.203Z,1020.26
2017-12-04T01:04:21.192Z,1020.20
2017-12-04T01:05:21.187Z,1020.22
2017-12-04T01:06:21.173Z,1020.20
2017-12-04T01:07:21.162Z,1020.21
2017-12-04T01:08:21.154Z,1020.18
2017-12-04T01:09:21.145Z,1020.18
2017-12-04T01:10:21.135Z,1020.16
2017-12-04T01:11:21.138Z,1020.22
2017-12-04T01:12:21.113Z,1020.19
2017-12-04T01:13:21.108Z,1020.15
2017-12-04T01:14:21.094Z,1020.23
2017-12-04T01:15:21.080Z,1020.22
2017-12-04T01:16:21.097Z,1020.20
2017-12-04T01:17:21.066Z,1020.17
2017-12-04T01:18:21.076Z,1020.21
2017-12-04T01:19:21.065Z,1020.22
2017-12-04T01:20:21.030Z,1020.24
2017-12-04T01:21:21.020Z,1020.33
2017-12-04T01:22:21.012Z,1020.30
2017-12-04T01:23:21.003Z,1020.30
2017-12-04T01:24:20.997Z,1020.32
2017-12-04T01:25:20.987Z,1020.31
2017-12-04T01:26:20.977Z,1020.25
2017-12-04T01:27:20.958Z,1020.29
2017-12-04T01:28:20.955Z,1020.27
2017-12-04T01:29:20.944Z,1020.28
2017-12-04T01:30:20.929Z,1020.22
2017-12-04T01:31:20.923Z,1020.28
2017-12-04T01:32:20.911Z,1020.24
2017-12-04T01:33:20.905Z,1020.29
2017-12-04T01:34:20.896Z,1020.30
2017-12-04T01:35:20.887Z,1020.34
2017-12-04T01:36:20.877Z,1020.35
2017-12-04T01:37:20.868Z,1020.33
2017-12-04T01:38:20.857Z,1020.35
2017-12-04T01:39:20.844Z,1020.35
2017-12-04T01:40:21.660Z,1020.36
2017-12-04T01:41:20.836Z,1020.41
2017-12-04T01:42:20.809Z,1020.36
2017-12-04T01:43:20.797Z,1020.34
2017-12-04T01:44:20.792Z,1020.40
2017-12-04T01:45:20.785Z,1020.43
2017-12-04T01:46:20.770Z,1020.39
2017-12-04T01:47:20.761Z,1020.42
2017-12-04T01:48:20.751Z,1020.41
2017-12-04T01:49:20.733Z,1020.49
2017-12-04T01:50:20.729Z,1020.48
2017-12-04T01:51:21.661Z,1020.50
2017-12-04T01:52:20.710Z,1020.47
2017-12-04T01:53:20.696Z,1020.48
2017-12-04T01:54:20.691Z,1020.51
2017-12-04T01:55:20.680Z,1020.49
2017-12-04T01:56:20.669Z,1020.48
2017-12-04T01:57:20.661Z,1020.49
2017-12-04T01:58:20.656Z,1020.46
2017-12-04T01:59:20.637Z,1020.49
2017-12-04T02:00:20.628Z,1020.47
2017-12-04T02:01:20.613Z,1020.45
2017-12-04T02:02:20.601Z,1020.46
2017-12-04T02:03:20.595Z,1020.47
2017-12-04T02:04:20.596Z,1020.42
2017-12-04T02:05:20.578Z,1020.43
2017-12-04T02:06:20.568Z,1020.44
2017-12-04T02:07:20.558Z,1020.45
2017-12-04T02:08:21.171Z,1020.44
2017-12-04T02:09:20.541Z,1020.45
2017-12-04T02:10:20.532Z,1020.48
2017-12-04T02:11:20.524Z,1020.45
2017-12-04T02:12:20.509Z,1020.47
2017-12-04T02:13:20.508Z,1020.44
2017-12-04T02:14:20.494Z,1020.46
2017-12-04T02:15:21.165Z,1020.46
2017-12-04T02:16:20.468Z,1020.43
2017-12-04T02:17:20.457Z,1020.46
2017-12-04T02:18:20.447Z,1020.49
2017-12-04T02:19:20.432Z,1020.48
2017-12-04T02:20:20.433Z,1020.46
2017-12-04T02:21:21.170Z,1020.49
2017-12-04T02:22:20.401Z,1020.50
2017-12-04T02:23:20.394Z,1020.48
2017-12-04T02:24:20.389Z,1020.46
2017-12-04T02:25:20.379Z,1020.47
2017-12-04T02:26:20.366Z,1020.50
2017-12-04T02:27:20.361Z,1020.45
2017-12-04T02:28:20.344Z,1020.49
2017-12-04T02:29:20.338Z,1020.44
2017-12-04T02:30:20.329Z,1020.46
2017-12-04T02:31:20.324Z,1020.42
2017-12-04T02:32:20.305Z,1020.38
2017-12-04T02:33:20.304Z,1020.37
2017-12-04T02:34:20.286Z,1020.41
2017-12-04T02:35:20.284Z,1020.39
2017-12-04T02:36:20.275Z,1020.42
2017-12-04T02:37:20.257Z,1020.43
2017-12-04T02:38:20.245Z,1020.45
2017-12-04T02:39:20.238Z,1020.46
2017-12-04T02:40:20.227Z,1020.44
2017-12-04T02:41:20.213Z,1020.38
2017-12-04T02:42:20.205Z,1020.41
2017-12-04T02:43:20.197Z,1020.46
2017-12-04T02:44:20.186Z,1020.39
2017-12-04T02:45:20.611Z,1020.35
2017-12-04T02:46:20.165Z,1020.37
2017-12-04T02:47:20.154Z,1020.40
2017-12-04T02:48:20.145Z,1020.38
2017-12-04T02:49:20.138Z,1020.39
2017-12-04T02:50:20.129Z,1020.44
2017-12-04T02:51:20.113Z,1020.43
2017-12-04T02:52:20.106Z,1020.42
2017-12-04T02:53:20.091Z,1020.43
2017-12-04T02:54:20.086Z,1020.45
2017-12-04T02:55:20.073Z,1020.43
2017-12-04T02:56:20.064Z,1020.41
2017-12-04T02:57:20.050Z,1020.42
2017-12-04T02:58:20.053Z,1020.44
2017-12-04T02:59:20.030Z,1020.43
2017-12-04T03:00:20.024Z,1020.41
2017-12-04T03:01:20.014Z,1020.46
2017-12-04T03:02:20.001Z,1020.50
2017-12-04T03:03:19.997Z,1020.44
2017-12-04T03:04:19.989Z,1020.48
2017-12-04T03:05:19.980Z,1020.47
2017-12-04T03:06:19.966Z,1020.53
2017-12-04T03:07:19.956Z,1020.48
2017-12-04T03:08:19.954Z,1020.47
2017-12-04T03:09:19.958Z,1020.44
2017-12-04T03:10:19.922Z,1020.42
2017-12-04T03:11:19.912Z,1020.39
2017-12-04T03:12:19.904Z,1020.37
2017-12-04T03:13:19.892Z,1020.31
2017-12-04T03:14:19.883Z,1020.38
2017-12-04T03:15:19.884Z,1020.43
2017-12-04T03:16:19.863Z,1020.42
2017-12-04T03:17:19.853Z,1020.43
2017-12-04T03:18:19.870Z,1020.48
2017-12-04T03:19:19.835Z,1020.49
2017-12-04T03:20:19.829Z,1020.44
2017-12-04T03:21:19.817Z,1020.51
2017-12-04T03:22:19.803Z,1020.44
2017-12-04T03:23:19.795Z,1020.39
2017-12-04T03:24:19.785Z,1020.46
2017-12-04T03:25:19.775Z,1020.48
2017-12-04T03:26:19.776Z,1020.42
2017-12-04T03:27:19.756Z,1020.35
2017-12-04T03:28:19.746Z,1020.33
2017-12-04T03:29:19.733Z,1020.31
2017-12-04T03:30:19.719Z,1020.33
2017-12-04T03:31:19.723Z,1020.29
2017-12-04T03:32:20.688Z,1020.32
2017-12-04T03:33:19.693Z,1020.30
2017-12-04T03:34:19.686Z,1020.37
2017-12-04T03:35:19.676Z,1020.35
2017-12-04T03:36:19.682Z,1020.36
2017-12-04T03:37:19.659Z,1020.36
2017-12-04T03:38:19.646Z,1020.33
2017-12-04T03:39:19.633Z,1020.36
2017-12-04T03:40:19.631Z,1020.35
2017-12-04T03:41:19.619Z,1020.37
2017-12-04T03:42:19.608Z,1020.38
2017-12-04T03:43:19.598Z,1020.34
2017-12-04T03:44:19.591Z,1020.39
2017-12-04T03:45:19.581Z,1020.36
2017-12-04T03:46:19.571Z,1020.37
2017-12-04T03:47:19.563Z,1020.34
2017-12-04T03:48:19.552Z,1020.34
2017-12-04T03:49:19.545Z,1020.34
2017-12-04T03:50:19.531Z,1020.34
2017-12-04T03:51:19.517Z,1020.34
2017-12-04T03:52:19.512Z,1020.35
2017-12-04T03:53:19.506Z,1020.36
2017-12-04T03:54:19.491Z,1020.33
2017-12-04T03:55:19.477Z,1020.37
2017-12-04T03:56:19.472Z,1020.39
2017-12-04T03:57:19.462Z,1020.39
2017-12-04T03:58:19.446Z,1020.43
2017-12-04T03:59:20.198Z,1020.49
2017-12-04T04:00:19.442Z,1020.45
2017-12-04T04:01:19.422Z,1020.43
2017-12-04T04:02:19.426Z,1020.46
2017-12-04T04:03:19.406Z,1020.44
2017-12-04T04:04:19.397Z,1020.46
2017-12-04T04:05:19.391Z,1020.46
2017-12-04T04:06:19.384Z,1020.52
2017-12-04T04:07:19.363Z,1020.54
2017-12-04T04:08:20.210Z,1020.50
2017-12-04T04:09:19.349Z,1020.52
2017-12-04T04:10:19.337Z,1020.49
2017-12-04T04:11:19.327Z,1020.57
2017-12-04T04:12:19.318Z,1020.53
2017-12-04T04:13:19.317Z,1020.51
2017-12-04T04:14:19.296Z,1020.55
2017-12-04T04:15:19.292Z,1020.53
2017-12-04T04:16:19.284Z,1020.58
2017-12-04T04:17:19.272Z,1020.56
2017-12-04T04:18:19.267Z,1020.53
2017-12-04T04:19:19.259Z,1020.47
2017-12-04T04:20:19.239Z,1020.49
2017-12-04T04:21:19.229Z,1020.51
2017-12-04T04:22:19.219Z,1020.41
2017-12-04T04:23:19.213Z,1020.43
2017-12-04T04:24:19.204Z,1020.43
2017-12-04T04:25:19.192Z,1020.47
2017-12-04T04:26:19.177Z,1020.47
2017-12-04T04:27:19.173Z,1020.53
2017-12-04T04:28:19.165Z,1020.48
2017-12-04T04:29:19.155Z,1020.46
2017-12-04T04:30:19.549Z,1020.50
2017-12-04T04:31:19.140Z,1020.46
2017-12-04T04:32:19.133Z,1020.44
2017-12-04T04:33:19.117Z,1020.39
2017-12-04T04:34:19.109Z,1020.41
2017-12-04T04:35:19.097Z,1020.44
2017-12-04T04:36:19.083Z,1020.47
2017-12-04T04:37:19.091Z,1020.46
2017-12-04T04:38:19.066Z,1020.47
2017-12-04T04:39:19.068Z,1020.49
2017-12-04T04:40:19.719Z,1020.49
2017-12-04T04:41:19.044Z,1020.53
2017-12-04T04:42:19.035Z,1020.47
2017-12-04T04:43:19.023Z,1020.49
2017-12-04T04:44:19.716Z,1020.54
2017-12-04T04:45:19.005Z,1020.60
2017-12-04T04:46:18.989Z,1020.57
2017-12-04T04:47:18.979Z,1020.58
2017-12-04T04:48:18.977Z,1020.61
2017-12-04T04:49:18.962Z,1020.57
2017-12-04T04:50:19.709Z,1020.61
2017-12-04T04:51:19.715Z,1020.57
2017-12-04T04:52:18.940Z,1020.53
2017-12-04T04:53:18.923Z,1020.49
2017-12-04T04:54:18.912Z,1020.49
2017-12-04T04:55:18.907Z,1020.52
2017-12-04T04:56:18.910Z,1020.51
2017-12-04T04:57:18.903Z,1020.51
2017-12-04T04:58:18.875Z,1020.51
2017-12-04T04:59:18.871Z,1020.51
2017-12-04T05:00:18.855Z,1020.52
2017-12-04T05:01:18.852Z,1020.48
2017-12-04T05:02:18.866Z,1020.48
2017-12-04T05:03:18.830Z,1020.50
2017-12-04T05:04:18.824Z,1020.51
2017-12-04T05:05:18.810Z,1020.52
2017-12-04T05:06:18.799Z,1020.50
2017-12-04T05:07:18.785Z,1020.54
2017-12-04T05:08:18.783Z,1020.56
2017-12-04T05:09:18.777Z,1020.50
2017-12-04T05:10:18.762Z,1020.53
2017-12-04T05:11:18.756Z,1020.55
2017-12-04T05:12:18.749Z,1020.49
2017-12-04T05:13:18.736Z,1020.51
2017-12-04T05:14:18.729Z,1020.52
2017-12-04T05:15:18.730Z,1020.54
2017-12-04T05:16:18.707Z,1020.54
2017-12-04T05:17:18.708Z,1020.58
2017-12-04T05:18:18.691Z,1020.54
2017-12-04T05:19:18.674Z,1020.57
2017-12-04T05:20:18.673Z,1020.55
2017-12-04T05:21:18.653Z,1020.56
2017-12-04T05:22:18.648Z,1020.56
2017-12-04T05:23:18.637Z,1020.50
2017-12-04T05:24:19.225Z,1020.53
2017-12-04T05:25:18.615Z,1020.56
2017-12-04T05:26:18.614Z,1020.57
2017-12-04T05:27:18.605Z,1020.57
2017-12-04T05:28:18.596Z,1020.53
2017-12-04T05:29:18.584Z,1020.55
2017-12-04T05:30:18.575Z,1020.62
2017-12-04T05:31:18.573Z,1020.66
2017-12-04T05:32:18.566Z,1020.66
2017-12-04T05:33:18.545Z,1020.67
2017-12-04T05:34:18.542Z,1020.71
2017-12-04T05:35:18.530Z,1020.66
2017-12-04T05:36:18.520Z,1020.71
2017-12-04T05:37:18.503Z,1020.69
2017-12-04T05:38:18.497Z,1020.68
2017-12-04T05:39:18.486Z,1020.73
2017-12-04T05:40:18.488Z,1020.67
2017-12-04T05:41:18.473Z,1020.75
2017-12-04T05:42:18.452Z,1020.74
2017-12-04T05:43:18.467Z,1020.77
2017-12-04T05:44:18.442Z,1020.77
2017-12-04T05:45:18.434Z,1020.76
2017-12-04T05:46:18.420Z,1020.75
2017-12-04T05:47:18.411Z,1020.73
2017-12-04T05:48:18.400Z,1020.74
2017-12-04T05:49:18.397Z,1020.79
2017-12-04T05:50:18.385Z,1020.79
2017-12-04T05:51:18.373Z,1020.76
2017-12-04T05:52:18.367Z,1020.76
2017-12-04T05:53:18.356Z,1020.74
2017-12-04T05:54:19.241Z,1020.80
2017-12-04T05:55:18.335Z,1020.79
2017-12-04T05:56:19.240Z,1020.83
2017-12-04T05:57:18.341Z,1020.83
2017-12-04T05:58:18.310Z,1020.83
2017-12-04T05:59:18.299Z,1020.82
2017-12-04T06:00:18.308Z,1020.82
2017-12-04T06:01:18.294Z,1020.80
2017-12-04T06:02:18.269Z,1020.81
2017-12-04T06:03:18.254Z,1020.81
2017-12-04T06:04:18.252Z,1020.81
2017-12-04T06:05:18.241Z,1020.83
2017-12-04T06:06:18.224Z,1020.86
2017-12-04T06:07:18.227Z,1020.91
2017-12-04T06:08:18.216Z,1020.91
2017-12-04T06:09:18.201Z,1020.91
2017-12-04T06:10:18.198Z,1020.87
2017-12-04T06:11:18.214Z,1020.96
2017-12-04T06:12:18.174Z,1020.95
2017-12-04T06:13:18.750Z,1020.95
2017-12-04T06:14:18.159Z,1020.99
2017-12-04T06:15:18.741Z,1020.99
2017-12-04T06:16:18.136Z,1020.92
2017-12-04T06:17:18.130Z,1020.99
2017-12-04T06:18:18.119Z,1020.97
2017-12-04T06:19:18.110Z,1020.97
2017-12-04T06:20:18.104Z,1021.03
2017-12-04T06:21:18.089Z,1020.99
2017-12-04T06:22:18.086Z,1021.01
2017-12-04T06:23:18.074Z,1021.00
2017-12-04T06:24:18.060Z,1021.08
2017-12-04T06:25:18.068Z,1021.05
2017-12-04T06:26:18.050Z,1021.06
2017-12-04T06:27:18.037Z,1021.09
2017-12-04T06:28:18.032Z,1021.05
2017-12-04T06:29:18.037Z,1021.08
2017-12-04T06:30:18.011Z,1021.04
2017-12-04T06:31:17.996Z,1021.10
2017-12-04T06:32:17.987Z,1021.12
2017-12-04T06:33:17.982Z,1021.10
2017-12-04T06:34:17.969Z,1021.09
2017-12-04T06:35:17.962Z,1021.12
2017-12-04T06:36:17.954Z,1021.10
2017-12-04T06:37:17.935Z,1021.12
2017-12-04T06:38:17.933Z,1021.12
2017-12-04T06:39:17.922Z,1021.12
2017-12-04T06:40:17.916Z,1021.15
2017-12-04T06:41:17.906Z,1021.22
2017-12-04T06:42:17.899Z,1021.21
2017-12-04T06:43:17.884Z,1021.22
2017-12-04T06:44:17.875Z,1021.20
2017-12-04T06:45:17.862Z,1021.19
2017-12-04T06:46:17.871Z,1021.25
2017-12-04T06:47:17.849Z,1021.20
2017-12-04T06:48:17.841Z,1021.18
2017-12-04T06:49:17.834Z,1021.17
2017-12-04T06:50:17.827Z,1021.15
2017-12-04T06:51:17.815Z,1021.19
2017-12-04T06:52:17.797Z,1021.20
2017-12-04T06:53:17.790Z,1021.23
2017-12-04T06:54:17.782Z,1021.18
2017-12-04T06:55:17.769Z,1021.27
2017-12-04T06:56:17.770Z,1021.22
2017-12-04T06:57:17.754Z,1021.30
2017-12-04T06:58:17.742Z,1021.30
2017-12-04T06:59:17.740Z,1021.36
2017-12-04T07:00:17.724Z,1021.39
2017-12-04T07:01:17.720Z,1021.44
2017-12-04T07:02:17.709Z,1021.47
2017-12-04T07:03:17.720Z,1021.51
2017-12-04T07:04:17.695Z,1021.52
2017-12-04T07:05:17.673Z,1021.52
2017-12-04T07:06:17.669Z,1021.51
2017-12-04T07:07:17.662Z,1021.50
2017-12-04T07:08:17.652Z,1021.50
2017-12-04T07:09:17.648Z,1021.50
2017-12-04T07:10:17.634Z,1021.49
2017-12-04T07:11:17.624Z,1021.51
2017-12-04T07:12:17.614Z,1021.47
2017-12-04T07:13:17.605Z,1021.49
2017-12-04T07:14:17.596Z,1021.47
2017-12-04T07:15:17.587Z,1021.55
2017-12-04T07:16:17.583Z,1021.53
2017-12-04T07:17:17.566Z,1021.53
2017-12-04T07:18:17.558Z,1021.51
2017-12-04T07:19:17.550Z,1021.52
2017-12-04T07:20:18.238Z,1021.56
2017-12-04T07:21:18.883Z,1021.59
2017-12-04T07:22:17.528Z,1021.58
2017-12-04T07:23:17.520Z,1021.57
2017-12-04T07:24:17.504Z,1021.63
2017-12-04T07:25:17.496Z,1021.62
2017-12-04T07:26:17.481Z,1021.61
2017-12-04T07:27:17.475Z,1021.63
2017-12-04T07:28:17.467Z,1021.61
2017-12-04T07:29:17.464Z,1021.63
2017-12-04T07:30:17.456Z,1021.66
2017-12-04T07:31:17.437Z,1021.66
2017-12-04T07:32:17.426Z,1021.66
2017-12-04T07:33:17.426Z,1021.61
2017-12-04T07:34:17.418Z,1021.62
2017-12-04T07:35:17.401Z,1021.65
2017-12-04T07:36:17.396Z,1021.59
2017-12-04T07:37:17.381Z,1021.65
2017-12-04T07:38:17.369Z,1021.65
2017-12-04T07:39:17.368Z,1021.63
2017-12-04T07:40:17.356Z,1021.67
2017-12-04T07:41:17.351Z,1021.70
2017-12-04T07:42:17.348Z,1021.69
2017-12-04T07:43:17.330Z,1021.75
2017-12-04T07:44:17.315Z,1021.76
2017-12-04T07:45:17.311Z,1021.77
2017-12-04T07:46:17.310Z,1021.77
2017-12-04T07:47:17.299Z,1021.77
2017-12-04T07:48:17.286Z,1021.78
2017-12-04T07:49:17.278Z,1021.81
2017-12-04T07:50:17.265Z,1021.85
2017-12-04T07:51:17.263Z,1021.89
2017-12-04T07:52:17.246Z,1021.88
2017-12-04T07:53:17.237Z,1021.92
2017-12-04T07:54:17.227Z,1021.93
2017-12-04T07:55:17.218Z,1021.98
2017-12-04T07:56:17.210Z,1021.99
2017-12-04T07:57:17.200Z,1022.03
2017-12-04T07:58:17.770Z,1021.97
2017-12-04T07:59:17.188Z,1022.00
2017-12-04T08:00:17.174Z,1022.01
2017-12-04T08:01:17.169Z,1022.05
2017-12-04T08:02:17.154Z,1022.05
2017-12-04T08:03:17.166Z,1022.05
2017-12-04T08:04:17.135Z,1022.08
2017-12-04T08:05:17.776Z,1022.11
2017-12-04T08:06:17.120Z,1022.08
2017-12-04T08:07:17.107Z,1022.08
2017-12-04T08:08:17.101Z,1022.09
2017-12-04T08:09:17.092Z,1022.12
2017-12-04T08:10:17.082Z,1022.14
2017-12-04T08:11:17.071Z,1022.11
2017-12-04T08:12:17.061Z,1022.16
2017-12-04T08:13:17.054Z,1022.12
2017-12-04T08:14:17.048Z,1022.21
2017-12-04T08:15:17.035Z,1022.22
2017-12-04T08:16:17.033Z,1022.17
2017-12-04T08:17:17.021Z,1022.18
2017-12-04T08:18:17.004Z,1022.18
2017-12-04T08:19:17.005Z,1022.21
2017-12-04T08:20:16.994Z,1022.20
2017-12-04T08:21:17.783Z,1022.21
2017-12-04T08:22:16.989Z,1022.25
2017-12-04T08:23:16.963Z,1022.20
2017-12-04T08:24:16.960Z,1022.24
2017-12-04T08:25:16.945Z,1022.21
2017-12-04T08:26:16.936Z,1022.25
2017-12-04T08:27:16.928Z,1022.23
2017-12-04T08:28:16.921Z,1022.33
2017-12-04T08:29:16.910Z,1022.34
2017-12-04T08:30:16.899Z,1022.26
2017-12-04T08:31:16.896Z,1022.24
2017-12-04T08:32:16.883Z,1022.26
2017-12-04T08:33:16.875Z,1022.23
2017-12-04T08:34:16.919Z,1022.21
2017-12-04T08:35:16.856Z,1022.26
2017-12-04T08:36:16.847Z,1022.30
2017-12-04T08:37:16.836Z,1022.27
2017-12-04T08:38:16.827Z,1022.30
2017-12-04T08:39:16.822Z,1022.27
2017-12-04T08:40:16.808Z,1022.33
2017-12-04T08:41:16.800Z,1022.37
2017-12-04T08:42:16.797Z,1022.38
2017-12-04T08:43:16.782Z,1022.36
2017-12-04T08:44:16.775Z,1022.34
2017-12-04T08:45:16.770Z,1022.34
2017-12-04T08:46:16.751Z,1022.39
2017-12-04T08:46:28.746Z,1022.38
2017-12-04T08:48:16.739Z,1022.35
2017-12-04T08:49:16.733Z,1022.39
2017-12-04T08:50:16.719Z,1022.38
2017-12-04T08:51:16.710Z,1022.31
2017-12-04T08:52:16.712Z,1022.37
2017-12-04T08:53:16.695Z,1022.37
2017-12-04T08:54:16.694Z,1022.35
2017-12-04T08:55:16.675Z,1022.39
2017-12-04T08:56:16.662Z,1022.35
2017-12-04T08:57:16.683Z,1022.34
2017-12-04T08:58:16.643Z,1022.35
2017-12-04T08:59:16.638Z,1022.34
2017-12-04T09:00:16.634Z,1022.32
2017-12-04T09:01:16.619Z,1022.30
2017-12-04T09:02:16.618Z,1022.29
2017-12-04T09:03:16.626Z,1022.28
2017-12-04T09:04:16.592Z,1022.29
2017-12-04T09:05:16.590Z,1022.31
2017-12-04T09:06:16.580Z,1022.28
2017-12-04T09:07:16.578Z,1022.27
2017-12-04T09:08:16.586Z,1022.33
2017-12-04T09:09:16.562Z,1022.35
2017-12-04T09:10:16.544Z,1022.32
2017-12-04T09:11:16.524Z,1022.36
2017-12-04T09:12:16.528Z,1022.35
2017-12-04T09:13:17.297Z,1022.35
2017-12-04T09:14:16.499Z,1022.33
2017-12-04T09:15:16.505Z,1022.37
2017-12-04T09:16:16.490Z,1022.38
2017-12-04T09:17:16.487Z,1022.32
2017-12-04T09:18:16.478Z,1022.38
2017-12-04T09:19:16.466Z,1022.41
2017-12-04T09:20:16.460Z,1022.42
2017-12-04T09:21:16.447Z,1022.45
2017-12-04T09:22:17.294Z,1022.51
2017-12-04T09:23:16.428Z,1022.47
2017-12-04T09:24:16.436Z,1022.53
2017-12-04T09:25:16.407Z,1022.47
2017-12-04T09:26:16.402Z,1022.43
2017-12-04T09:27:16.404Z,1022.49
2017-12-04T09:28:19.303Z,1022.45
2017-12-04T09:29:16.372Z,1022.45
2017-12-04T09:30:16.370Z,1022.49
2017-12-04T09:31:16.360Z,1022.50
2017-12-04T09:32:16.351Z,1022.50
2017-12-04T09:33:16.342Z,1022.62
2017-12-04T09:34:16.334Z,1022.58
2017-12-04T09:35:16.328Z,1022.57
2017-12-04T09:36:16.320Z,1022.62
2017-12-04T09:37:16.317Z,1022.68
2017-12-04T09:38:16.303Z,1022.67
2017-12-04T09:39:16.294Z,1022.72
2017-12-04T09:40:16.287Z,1022.69
2017-12-04T09:41:16.278Z,1022.71
2017-12-04T09:42:16.811Z,1022.72
2017-12-04T09:43:16.260Z,1022.69
2017-12-04T09:44:16.257Z,1022.70
2017-12-04T09:45:16.241Z,1022.74
2017-12-04T09:46:16.236Z,1022.72
2017-12-04T09:47:16.224Z,1022.75
2017-12-04T09:48:16.223Z,1022.78
2017-12-04T09:49:16.207Z,1022.76
2017-12-04T09:50:16.197Z,1022.80
2017-12-04T09:51:16.196Z,1022.79
2017-12-04T09:52:16.186Z,1022.77
2017-12-04T09:53:16.179Z,1022.75
2017-12-04T09:54:16.165Z,1022.76
2017-12-04T09:55:16.165Z,1022.78
2017-12-04T09:56:16.148Z,1022.78
2017-12-04T09:57:16.165Z,1022.79
2017-12-04T09:58:16.134Z,1022.82
2017-12-04T09:59:16.133Z,1022.82
2017-12-04T10:00:16.122Z,1022.81
2017-12-04T10:01:16.119Z,1022.83
2017-12-04T10:02:16.102Z,1022.85
2017-12-04T10:03:16.093Z,1022.84
2017-12-04T10:04:16.085Z,1022.81
2017-12-04T10:05:16.084Z,1022.86
2017-12-04T10:06:16.072Z,1022.87
2017-12-04T10:07:16.816Z,1022.88
2017-12-04T10:08:16.045Z,1022.82
2017-12-04T10:09:16.040Z,1022.84
2017-12-04T10:10:16.034Z,1022.83
2017-12-04T10:11:16.027Z,1022.83
2017-12-04T10:12:16.020Z,1022.83
2017-12-04T10:13:16.009Z,1022.84
2017-12-04T10:14:15.999Z,1022.87
2017-12-04T10:15:15.993Z,1022.90
2017-12-04T10:16:15.987Z,1022.92
2017-12-04T10:17:15.980Z,1022.93
2017-12-04T10:18:15.973Z,1022.95
2017-12-04T10:19:15.961Z,1022.98
2017-12-04T10:20:15.954Z,1022.96
2017-12-04T10:21:15.943Z,1022.99
2017-12-04T10:22:15.985Z,1022.95
2017-12-04T10:23:15.926Z,1022.99
2017-12-04T10:24:15.915Z,1023.02
2017-12-04T10:25:15.910Z,1023.07
2017-12-04T10:26:15.904Z,1023.03
2017-12-04T10:27:15.895Z,1023.03
2017-12-04T10:28:15.887Z,1023.01
2017-12-04T10:29:15.877Z,1023.03
2017-12-04T10:30:15.869Z,1023.02
2017-12-04T10:31:15.856Z,1023.00
2017-12-04T10:32:15.859Z,1023.07
2017-12-04T10:33:15.850Z,1023.03
2017-12-04T10:34:15.835Z,1023.06
2017-12-04T10:35:15.829Z,1023.05
2017-12-04T10:36:15.845Z,1023.07
2017-12-04T10:37:15.813Z,1023.13
2017-12-04T10:38:15.801Z,1023.12
2017-12-04T10:39:15.795Z,1023.05
2017-12-04T10:40:15.786Z,1023.08
2017-12-04T10:41:15.778Z,1023.10
2017-12-04T10:42:15.768Z,1023.09
2017-12-04T10:43:15.762Z,1023.09
2017-12-04T10:44:15.755Z,1023.02
2017-12-04T10:45:15.740Z,1023.00
2017-12-04T10:46:15.737Z,1023.06
2017-12-04T10:47:22.327Z,1023.01
2017-12-04T10:48:15.725Z,1023.03
2017-12-04T10:49:15.715Z,1023.01
2017-12-04T10:50:15.706Z,1023.04
2017-12-04T10:51:15.702Z,1023.08
2017-12-04T10:52:15.692Z,1023.05
2017-12-04T10:53:15.688Z,1023.07
2017-12-04T10:54:16.329Z,1023.07
2017-12-04T10:55:15.672Z,1023.08
2017-12-04T10:56:15.660Z,1023.14
2017-12-04T10:57:15.647Z,1023.13
2017-12-04T10:58:15.638Z,1023.10
2017-12-04T10:59:15.632Z,1023.05
2017-12-04T11:00:16.337Z,1023.09
2017-12-04T11:01:15.618Z,1023.03
2017-12-04T11:02:15.611Z,1023.05
2017-12-04T11:03:15.590Z,1023.02
2017-12-04T11:04:15.589Z,1023.04
2017-12-04T11:05:15.602Z,1023.01
2017-12-04T11:06:15.576Z,1023.06
2017-12-04T11:07:16.346Z,1023.03
2017-12-04T11:08:15.560Z,1023.04
2017-12-04T11:09:15.550Z,1023.00
2017-12-04T11:10:15.538Z,1023.03
2017-12-04T11:11:15.534Z,1023.01
2017-12-04T11:12:15.527Z,1022.99
2017-12-04T11:13:15.519Z,1023.02
2017-12-04T11:14:15.507Z,1022.98
2017-12-04T11:15:15.504Z,1023.02
2017-12-04T11:16:15.496Z,1023.00
2017-12-04T11:17:15.488Z,1023.01
2017-12-04T11:18:15.478Z,1023.00
2017-12-04T11:19:15.472Z,1022.98
2017-12-04T11:20:15.458Z,1022.96
2017-12-04T11:21:15.451Z,1022.97
2017-12-04T11:22:15.443Z,1022.96
2017-12-04T11:23:15.437Z,1022.96
2017-12-04T11:24:15.426Z,1022.99
2017-12-04T11:25:15.419Z,1022.95
2017-12-04T11:26:15.409Z,1022.95
2017-12-04T11:27:15.403Z,1022.97
2017-12-04T11:28:15.395Z,1022.97
2017-12-04T11:29:16.345Z,1023.01
2017-12-04T11:30:15.381Z,1022.98
2017-12-04T11:31:15.402Z,1022.97
2017-12-04T11:32:15.389Z,1023.02
2017-12-04T11:33:15.371Z,1022.94
2017-12-04T11:34:15.849Z,1023.05
2017-12-04T11:35:15.338Z,1023.04
2017-12-04T11:36:15.333Z,1023.07
2017-12-04T11:37:15.326Z,1023.08
2017-12-04T11:38:15.329Z,1023.06
2017-12-04T11:39:15.331Z,1023.12
2017-12-04T11:40:15.853Z,1023.08
2017-12-04T11:41:15.289Z,1023.06
2017-12-04T11:42:15.281Z,1023.07
2017-12-04T11:43:15.280Z,1023.06
2017-12-04T11:44:15.271Z,1023.04
2017-12-04T11:45:15.253Z,1023.10
2017-12-04T11:46:15.250Z,1023.06
2017-12-04T11:47:15.246Z,1023.08
2017-12-04T11:48:15.248Z,1023.13
2017-12-04T11:49:15.243Z,1023.15
2017-12-04T11:50:15.216Z,1023.11
2017-12-04T11:51:15.211Z,1023.09
2017-12-04T11:52:15.203Z,1023.11
2017-12-04T11:53:15.217Z,1023.14
2017-12-04T11:54:15.198Z,1023.15
2017-12-04T11:55:15.176Z,1023.18
2017-12-04T11:56:15.175Z,1023.19
2017-12-04T11:57:15.185Z,1023.17
2017-12-04T11:58:15.151Z,1023.17
2017-12-04T11:59:15.152Z,1023.15
2017-12-04T12:00:15.141Z,1023.12
2017-12-04T12:01:15.128Z,1023.16
2017-12-04T12:02:15.117Z,1023.18
2017-12-04T12:03:15.849Z,1023.21
2017-12-04T12:04:15.107Z,1023.19
2017-12-04T12:05:15.099Z,1023.20